Aviation Digital Data Service (ADDS)

Output produced by METARs form (1017 UTC 28 July 2021)
found at http://aviationweather.gov/metar/data/
 
LSZH 280950Z 06003KT 030V100 8000 FEW006 SCT012 BKN017 16/15 Q1017 RESHRA NOSIG
LSZH 280920Z 01004KT 7000 -SHRA FEW006 SCT008 BKN014 16/15 Q1017 NOSIG
TAF LSZH 280825Z 2809/2915 VRB02KT 9999 FEW012 BKN018 BKN045 TX23/2815Z
TN14/2903Z TX26/2915Z 
     TEMPO 2809/2812 SHRA SCT025TCU 
     PROB40 
     TEMPO 2809/2811 4000 +SHRA 
     BECMG 2901/2904 1200 PRFG BKN003 
     PROB40 2903/2906 0600 FG VV002 
     BECMG 2906/2909 9999 FEW010
       
LFSB 281000Z VRB02KT 9999 FEW028 BKN260 21/15 Q1016 NOSIG
LFSB 280930Z 14005KT 100V190 9999 FEW026 BKN260 20/15 Q1016 NOSIG
TAF LFSB 280500Z 2806/2906 26004KT 9999 FEW020 SCT050 BKN090 
     PROB40 
     TEMPO 2806/2810 4000 SHRA SCT050TCU 
     PROB30 
     TEMPO 2806/2810 -TSRA FEW050CB 
     PROB30 
     TEMPO 2901/2906 4000 MIFG
       
LSZG 280950Z VRB02KT 9999 SCT011 SCT035 BKN055 18/16 Q1017 NOSIG
LSZG 280920Z 23003KT 180V260 9999 SCT007 SCT040 BKN070 18/16 Q1017 NOSIG
TAF LSZG 280825Z 2809/2818 24006KT 9999 FEW005 SCT010 BKN025 
     PROB40 
     TEMPO 2809/2811 SHRA SCT025TCU 
     TEMPO 2814/2818 CAVOK
       
LSZB 280950Z VRB02KT 9999 SCT010 BKN021 18/16 Q1017 NOSIG
LSZB 280920Z VRB01KT 9999 SCT008 BKN013 18/16 Q1017 NOSIG
TAF LSZB 280825Z 2809/2818 VRB02KT 9999 SCT003 BKN015
       
LSGG 280950Z 20009KT 9999 FEW015 SCT050 BKN080 20/15 Q1017 NOSIG
LSGG 280920Z 21010KT 9999 FEW010 BKN050 20/15 Q1017 NOSIG
TAF LSGG 280825Z 2809/2915 23005KT 9999 FEW015 BKN050 TX25/2815Z TN15/2904Z
TX27/2915Z 
     BECMG 2818/2820 CAVOK
       
LSZR 280950Z 10004KT 9000 -RA FEW020 SCT055 BKN080 17/17 Q1017 NOSIG RMK H
LSZR 280920Z 12004KT 9999 FEW020 SCT055 BKN080 17/17 Q1017 NOSIG RMK G
TAF LSZR 280825Z 2809/2818 29008KT 9999 SCT018 BKN060 
     TEMPO 2809/2815 8000 SHRA FEW030TCU 
     PROB30 
     TEMPO 2809/2812 3500 +SHRA
       
LSGS 280950Z 24006KT 210V280 9999 FEW015 SCT070 OVC120 19/16 Q1017
LSGS 280920Z 26005KT 9999 FEW025 BKN070 OVC120 19/16 Q1017
TAF LSGS 280825Z 2809/2818 25007KT 9999 FEW025 BKN090
       
LSZA 280950Z 02005KT 360V070 9000 -RA FEW005 SCT020TCU BKN030 OVC040 18/17 Q1017 NOSIG
LSZA 280920Z 01004KT 330V040 5000 RA FEW004 SCT020CB BKN025 OVC040 18/17 Q1017 NOSIG
TAF LSZA 280825Z 2809/2818 15004KT 9999 SCT025 OVC030 
     TEMPO 2809/2811 SHRA FEW025CB 
     PROB40 
     TEMPO 2809/2811 3000 TSRA SCT020CB
       
EDNY 280950Z 17004KT 9999 -RA FEW032 OVC042 17/15 Q1017
EDNY 280920Z 18005KT 160V230 9999 -RA FEW009 BKN042 17/15 Q1017
TAF EDNY 280500Z 2806/2906 VRB03KT 9999 SCT040 
     PROB40 
     TEMPO 2806/2813 SHRA BKN010 BKN040CB 
     BECMG 2807/2809 23005KT 
     BECMG 2817/2819 VRB02KT 
     PROB30 
     TEMPO 2902/2906 1200 BCFG
       
EDDS 280950Z 19007KT 130V240 9999 FEW013 18/14 Q1016 NOSIG
EDDS 280920Z 19005KT 130V240 9999 FEW009 18/15 Q1015 NOSIG
TAF COR EDDS 280557Z 2806/2906 VRB03KT 9999 SCT040 
     PROB30 
     TEMPO 2806/2809 RA 
     BECMG 2807/2810 21006KT 
     PROB30 
     TEMPO 2813/2817 22012KT SHRA SCT045CB 
     BECMG 2818/2820 VRB03KT
       
LOWI 280950Z 28008KT 9999 FEW030 SCT060 BKN120 23/17 Q1014 NOSIG
LOWI 280920Z 27009KT 9999 FEW030 SCT070 FEW070CB BKN120 22/16 Q1015 NOSIG
TAF LOWI 280515Z 2806/2906 27006KT 9999 FEW020 SCT060 BKN100 TX23/2811Z
TN14/2904Z 
     TEMPO 2808/2810 SHRA 
     TEMPO 2810/2816 27015G30KT TSRA SCT050CB BKN070
       
EDDM 280950Z 28004KT 260V320 3500 RA FEW004 BKN015 18/17 Q1016 BECMG 5000
EDDM 280920Z 29005KT 260V320 9999 -RA SCT013 19/17 Q1015 TEMPO RA
TAF EDDM 280500Z 2806/2912 24006KT 9999 SCT035 
     PROB40 
     TEMPO 2810/2817 RA 
     BECMG 2818/2820 VRB02KT 
     BECMG 2907/2909 26008KT
       
LFMD 281000Z AUTO 16006KT 120V190 9999 ///TCU 26/21 Q1014 NOSIG
LFMD 280930Z AUTO 17005KT 140V210 CAVOK 26/20 Q1014 TEMPO FEW035TCU
TAF LFMD 280800Z 2809/2909 15010KT CAVOK 
     PROB30 
     TEMPO 2810/2814 FEW035TCU 
     BECMG 2817/2819 04005KT 
     TEMPO 2900/2907 BKN012 
     BECMG 2907/2909 15010KT
       
LFLL 281000Z VRB03KT 9999 SCT020 SCT060 22/16 Q1017 NOSIG
LFLL 280930Z 22004KT 160V280 9999 SCT015 SCT059 21/17 Q1017 NOSIG
TAF LFLL 280500Z 2806/2912 VRB03KT 9999 SCT040 
     PROB30 
     TEMPO 2806/2809 -SHRA BKN012 SCT015TCU BKN020 
     PROB30 
     TEMPO 2809/2812 08005KT FEW022TCU 
     PROB30 
     TEMPO 2813/2818 02005KT FEW030TCU 
     TEMPO 2900/2908 BKN040
       
LIMC 280950Z VRB04KT 9999 BKN030 24/20 Q1015 TEMPO RA
LIMC 280920Z 17003KT 110V220 9999 BKN020 BKN040 24/20 Q1015 NOSIG
TAF LIMC 280500Z 2806/2912 VRB05KT 9999 SCT030 
     TEMPO 2806/2815 SHRA 
     BECMG 2811/2813 02010KT
       
LFPB 281000Z AUTO 23012KT 9999 BKN037 BKN043 BKN062 20/13 Q1013 NOSIG
LFPB 280930Z AUTO 24011KT 190V270 9999 BKN034 BKN041 BKN064 20/12 Q1013 NOSIG
TAF LFPB 280500Z 2806/2906 23010KT 9999 SCT040 
     PROB40 
     TEMPO 2814/2817 22015G25KT 4500 -SHRA SCT030TCU 
     PROB30 
     TEMPO 2818/2822 -SHRA SCT030TCU
       
LIPZ 280950Z 12004KT 060V180 CAVOK 28/21 Q1014 NOSIG
LIPZ 280920Z VRB03KT CAVOK 27/20 Q1014 NOSIG
TAF LIPZ 280500Z 2806/2912 VRB05KT 9999 SCT050 
     BECMG 2810/2812 16012KT 
     TEMPO 2812/2819 4000 TSRA 
     BECMG 2818/2820 VRB05KT